sensor_id;sensor_type;location;lat;lon;timestamp;temperature;humidity
2042;DHT22;1026;51.460;7.252;2022-08-19T00:00:36;23.20;68.60
2042;DHT22;1026;51.460;7.252;2022-08-19T00:03:03;23.20;68.70
2042;DHT22;1026;51.460;7.252;2022-08-19T00:05:29;23.20;68.60
2042;DHT22;1026;51.460;7.252;2022-08-19T00:07:55;23.10;68.70
2042;DHT22;1026;51.460;7.252;2022-08-19T00:10:21;23.10;68.70
2042;DHT22;1026;51.460;7.252;2022-08-19T00:12:47;23.10;68.80
2042;DHT22;1026;51.460;7.252;2022-08-19T00:15:16;23.10;68.90
2042;DHT22;1026;51.460;7.252;2022-08-19T00:17:43;23.10;68.90
2042;DHT22;1026;51.460;7.252;2022-08-19T00:20:12;23.10;68.80
2042;DHT22;1026;51.460;7.252;2022-08-19T00:22:39;23.10;68.90
2042;DHT22;1026;51.460;7.252;2022-08-19T00:25:07;23.10;68.90
2042;DHT22;1026;51.460;7.252;2022-08-19T00:27:33;23.10;69.00
2042;DHT22;1026;51.460;7.252;2022-08-19T00:29:58;23.00;69.00
2042;DHT22;1026;51.460;7.252;2022-08-19T00:32:24;23.00;69.00
2042;DHT22;1026;51.460;7.252;2022-08-19T00:34:51;23.00;69.10
2042;DHT22;1026;51.460;7.252;2022-08-19T00:37:19;23.00;69.10
2042;DHT22;1026;51.460;7.252;2022-08-19T00:39:45;23.00;69.20
2042;DHT22;1026;51.460;7.252;2022-08-19T00:42:10;23.00;69.30
2042;DHT22;1026;51.460;7.252;2022-08-19T00:44:37;22.90;69.30
2042;DHT22;1026;51.460;7.252;2022-08-19T00:47:03;22.80;69.20
2042;DHT22;1026;51.460;7.252;2022-08-19T00:49:41;22.90;69.40
2042;DHT22;1026;51.460;7.252;2022-08-19T00:52:15;22.90;69.50
2042;DHT22;1026;51.460;7.252;2022-08-19T00:54:42;22.90;69.50
2042;DHT22;1026;51.460;7.252;2022-08-19T00:57:11;22.90;69.50
2042;DHT22;1026;51.460;7.252;2022-08-19T00:59:42;22.80;69.50
2042;DHT22;1026;51.460;7.252;2022-08-19T01:02:11;22.80;69.50
2042;DHT22;1026;51.460;7.252;2022-08-19T01:04:37;22.80;69.60
2042;DHT22;1026;51.460;7.252;2022-08-19T01:07:03;22.70;69.50
2042;DHT22;1026;51.460;7.252;2022-08-19T01:09:29;22.80;69.60
2042;DHT22;1026;51.460;7.252;2022-08-19T01:11:55;22.80;69.70
2042;DHT22;1026;51.460;7.252;2022-08-19T01:14:21;22.80;69.70
2042;DHT22;1026;51.460;7.252;2022-08-19T01:16:48;22.70;69.70
2042;DHT22;1026;51.460;7.252;2022-08-19T01:19:28;22.70;69.70
2042;DHT22;1026;51.460;7.252;2022-08-19T01:22:00;22.70;69.70
2042;DHT22;1026;51.460;7.252;2022-08-19T01:24:27;22.70;69.80
2042;DHT22;1026;51.460;7.252;2022-08-19T01:26:52;22.70;69.80
2042;DHT22;1026;51.460;7.252;2022-08-19T01:29:18;22.70;69.80
2042;DHT22;1026;51.460;7.252;2022-08-19T01:31:52;22.60;69.70
2042;DHT22;1026;51.460;7.252;2022-08-19T01:34:19;22.50;69.70
2042;DHT22;1026;51.460;7.252;2022-08-19T01:36:46;22.60;69.80
2042;DHT22;1026;51.460;7.252;2022-08-19T01:39:17;22.60;69.80
2042;DHT22;1026;51.460;7.252;2022-08-19T01:41:43;22.60;69.90
2042;DHT22;1026;51.460;7.252;2022-08-19T01:44:09;22.60;69.90
2042;DHT22;1026;51.460;7.252;2022-08-19T01:46:35;22.60;70.00
2042;DHT22;1026;51.460;7.252;2022-08-19T01:49:03;22.60;70.00
2042;DHT22;1026;51.460;7.252;2022-08-19T01:51:29;22.60;70.00
2042;DHT22;1026;51.460;7.252;2022-08-19T01:53:56;22.50;69.90
2042;DHT22;1026;51.460;7.252;2022-08-19T01:56:24;22.50;69.90
2042;DHT22;1026;51.460;7.252;2022-08-19T01:58:56;22.50;69.90
2042;DHT22;1026;51.460;7.252;2022-08-19T02:01:23;22.50;70.00
2042;DHT22;1026;51.460;7.252;2022-08-19T02:03:49;22.50;70.00
2042;DHT22;1026;51.460;7.252;2022-08-19T02:06:15;22.50;70.00
2042;DHT22;1026;51.460;7.252;2022-08-19T02:08:42;22.50;70.10
2042;DHT22;1026;51.460;7.252;2022-08-19T02:11:19;22.40;70.00
2042;DHT22;1026;51.460;7.252;2022-08-19T02:13:44;22.30;69.90
2042;DHT22;1026;51.460;7.252;2022-08-19T02:16:10;22.40;70.00
2042;DHT22;1026;51.460;7.252;2022-08-19T02:18:36;22.40;70.10
2042;DHT22;1026;51.460;7.252;2022-08-19T02:21:01;22.40;70.10
2042;DHT22;1026;51.460;7.252;2022-08-19T02:23:27;22.30;70.00
2042;DHT22;1026;51.460;7.252;2022-08-19T02:25:53;22.30;70.10
2042;DHT22;1026;51.460;7.252;2022-08-19T02:28:18;22.30;70.20
2042;DHT22;1026;51.460;7.252;2022-08-19T02:30:45;22.30;70.20
2042;DHT22;1026;51.460;7.252;2022-08-19T02:33:11;22.30;70.30
2042;DHT22;1026;51.460;7.252;2022-08-19T02:35:37;22.30;70.30
2042;DHT22;1026;51.460;7.252;2022-08-19T02:38:05;22.20;70.20
2042;DHT22;1026;51.460;7.252;2022-08-19T02:40:50;22.20;70.20
2042;DHT22;1026;51.460;7.252;2022-08-19T02:43:17;22.20;70.30
2042;DHT22;1026;51.460;7.252;2022-08-19T02:45:43;22.20;70.30
2042;DHT22;1026;51.460;7.252;2022-08-19T02:48:09;22.20;70.40
2042;DHT22;1026;51.460;7.252;2022-08-19T02:50:39;22.20;70.40
2042;DHT22;1026;51.460;7.252;2022-08-19T02:53:04;22.20;70.40
2042;DHT22;1026;51.460;7.252;2022-08-19T02:55:31;22.10;70.40
2042;DHT22;1026;51.460;7.252;2022-08-19T02:57:57;22.00;70.30
2042;DHT22;1026;51.460;7.252;2022-08-19T03:00:22;22.10;70.40
2042;DHT22;1026;51.460;7.252;2022-08-19T03:02:49;22.10;70.40
2042;DHT22;1026;51.460;7.252;2022-08-19T03:05:15;22.10;70.50
2042;DHT22;1026;51.460;7.252;2022-08-19T03:07:41;22.10;70.50
2042;DHT22;1026;51.460;7.252;2022-08-19T03:10:07;22.00;70.40
2042;DHT22;1026;51.460;7.252;2022-08-19T03:12:36;22.00;70.50
2042;DHT22;1026;51.460;7.252;2022-08-19T03:15:05;22.00;70.50
2042;DHT22;1026;51.460;7.252;2022-08-19T03:17:33;22.00;70.60
2042;DHT22;1026;51.460;7.252;2022-08-19T03:19:59;21.90;70.50
2042;DHT22;1026;51.460;7.252;2022-08-19T03:22:25;22.00;70.60
2042;DHT22;1026;51.460;7.252;2022-08-19T03:24:50;22.00;70.70
2042;DHT22;1026;51.460;7.252;2022-08-19T03:27:16;21.90;70.60
2042;DHT22;1026;51.460;7.252;2022-08-19T03:29:43;21.90;70.70
2042;DHT22;1026;51.460;7.252;2022-08-19T03:32:09;21.90;70.70
2042;DHT22;1026;51.460;7.252;2022-08-19T03:34:37;21.90;70.70
2042;DHT22;1026;51.460;7.252;2022-08-19T03:37:07;22.00;70.80
2042;DHT22;1026;51.460;7.252;2022-08-19T03:39:33;21.90;70.80
2042;DHT22;1026;51.460;7.252;2022-08-19T03:42:00;21.90;70.80
2042;DHT22;1026;51.460;7.252;2022-08-19T03:44:29;21.90;70.90
2042;DHT22;1026;51.460;7.252;2022-08-19T03:46:56;21.90;70.90
2042;DHT22;1026;51.460;7.252;2022-08-19T03:49:26;21.90;70.90
2042;DHT22;1026;51.460;7.252;2022-08-19T03:51:54;21.80;70.80
2042;DHT22;1026;51.460;7.252;2022-08-19T03:54:22;21.80;70.90
2042;DHT22;1026;51.460;7.252;2022-08-19T03:56:50;21.80;70.90
2042;DHT22;1026;51.460;7.252;2022-08-19T03:59:21;21.80;70.90
2042;DHT22;1026;51.460;7.252;2022-08-19T04:01:48;21.80;71.00
2042;DHT22;1026;51.460;7.252;2022-08-19T04:04:14;21.70;70.90
2042;DHT22;1026;51.460;7.252;2022-08-19T04:06:39;21.70;71.00
2042;DHT22;1026;51.460;7.252;2022-08-19T04:09:08;21.70;70.90
2042;DHT22;1026;51.460;7.252;2022-08-19T04:11:37;21.70;71.00
2042;DHT22;1026;51.460;7.252;2022-08-19T04:14:06;21.70;71.10
2042;DHT22;1026;51.460;7.252;2022-08-19T04:16:34;21.70;71.10
2042;DHT22;1026;51.460;7.252;2022-08-19T04:19:02;21.60;71.00
2042;DHT22;1026;51.460;7.252;2022-08-19T04:21:28;21.70;71.10
2042;DHT22;1026;51.460;7.252;2022-08-19T04:23:55;21.70;71.10
2042;DHT22;1026;51.460;7.252;2022-08-19T04:26:24;21.60;71.10
2042;DHT22;1026;51.460;7.252;2022-08-19T04:28:50;21.60;71.10
2042;DHT22;1026;51.460;7.252;2022-08-19T04:31:21;21.60;71.10
2042;DHT22;1026;51.460;7.252;2022-08-19T04:33:47;21.60;71.20
2042;DHT22;1026;51.460;7.252;2022-08-19T04:36:24;21.60;71.20
2042;DHT22;1026;51.460;7.252;2022-08-19T04:38:55;21.60;71.20
2042;DHT22;1026;51.460;7.252;2022-08-19T04:41:21;21.60;71.20
2042;DHT22;1026;51.460;7.252;2022-08-19T04:44:02;21.50;71.20
2042;DHT22;1026;51.460;7.252;2022-08-19T04:46:29;21.50;71.30
2042;DHT22;1026;51.460;7.252;2022-08-19T04:48:58;21.50;71.30
2042;DHT22;1026;51.460;7.252;2022-08-19T04:51:24;21.50;71.40
2042;DHT22;1026;51.460;7.252;2022-08-19T04:53:50;21.50;71.40
2042;DHT22;1026;51.460;7.252;2022-08-19T04:56:18;21.50;71.40
2042;DHT22;1026;51.460;7.252;2022-08-19T04:58:49;21.50;71.40
2042;DHT22;1026;51.460;7.252;2022-08-19T05:01:21;21.50;71.40
2042;DHT22;1026;51.460;7.252;2022-08-19T05:03:47;21.40;71.40
2042;DHT22;1026;51.460;7.252;2022-08-19T05:06:15;21.40;71.40
2042;DHT22;1026;51.460;7.252;2022-08-19T05:08:42;21.40;71.50
2042;DHT22;1026;51.460;7.252;2022-08-19T05:11:19;21.40;71.50
2042;DHT22;1026;51.460;7.252;2022-08-19T05:13:46;21.40;71.70
2042;DHT22;1026;51.460;7.252;2022-08-19T05:16:16;21.40;71.70
2042;DHT22;1026;51.460;7.252;2022-08-19T05:18:42;21.30;71.60
2042;DHT22;1026;51.460;7.252;2022-08-19T05:21:24;21.30;71.70
2042;DHT22;1026;51.460;7.252;2022-08-19T05:24:06;21.20;71.60
2042;DHT22;1026;51.460;7.252;2022-08-19T05:26:37;21.30;71.70
2042;DHT22;1026;51.460;7.252;2022-08-19T05:29:04;21.30;71.80
2042;DHT22;1026;51.460;7.252;2022-08-19T05:31:30;21.30;71.90
2042;DHT22;1026;51.460;7.252;2022-08-19T05:33:56;21.30;71.90
2042;DHT22;1026;51.460;7.252;2022-08-19T05:36:25;21.30;71.90
2042;DHT22;1026;51.460;7.252;2022-08-19T05:38:51;21.30;71.90
2042;DHT22;1026;51.460;7.252;2022-08-19T05:41:19;21.30;71.90
2042;DHT22;1026;51.460;7.252;2022-08-19T05:43:45;21.30;71.90
2042;DHT22;1026;51.460;7.252;2022-08-19T05:46:17;21.30;72.00
2042;DHT22;1026;51.460;7.252;2022-08-19T05:48:43;21.20;71.90
2042;DHT22;1026;51.460;7.252;2022-08-19T05:51:09;21.20;72.00
2042;DHT22;1026;51.460;7.252;2022-08-19T05:53:36;21.20;72.00
2042;DHT22;1026;51.460;7.252;2022-08-19T05:56:07;21.20;72.00
2042;DHT22;1026;51.460;7.252;2022-08-19T05:58:34;21.20;72.00
2042;DHT22;1026;51.460;7.252;2022-08-19T06:01:00;21.20;72.00
2042;DHT22;1026;51.460;7.252;2022-08-19T06:03:32;21.20;72.00
2042;DHT22;1026;51.460;7.252;2022-08-19T06:05:59;21.20;71.90
2042;DHT22;1026;51.460;7.252;2022-08-19T06:08:25;21.20;72.00
2042;DHT22;1026;51.460;7.252;2022-08-19T06:10:52;21.10;71.90
2042;DHT22;1026;51.460;7.252;2022-08-19T06:13:18;21.20;72.00
2042;DHT22;1026;51.460;7.252;2022-08-19T06:15:45;21.20;72.00
2042;DHT22;1026;51.460;7.252;2022-08-19T06:18:13;21.20;72.00
2042;DHT22;1026;51.460;7.252;2022-08-19T06:20:39;21.20;72.10
2042;DHT22;1026;51.460;7.252;2022-08-19T06:23:05;21.20;72.10
2042;DHT22;1026;51.460;7.252;2022-08-19T06:25:31;21.20;72.10
2042;DHT22;1026;51.460;7.252;2022-08-19T06:27:57;21.20;72.10
2042;DHT22;1026;51.460;7.252;2022-08-19T06:30:23;21.20;72.10
2042;DHT22;1026;51.460;7.252;2022-08-19T06:32:49;21.10;72.10
2042;DHT22;1026;51.460;7.252;2022-08-19T06:35:14;21.20;72.10
2042;DHT22;1026;51.460;7.252;2022-08-19T06:37:40;21.20;72.10
2042;DHT22;1026;51.460;7.252;2022-08-19T06:40:07;21.10;71.90
2042;DHT22;1026;51.460;7.252;2022-08-19T06:42:34;21.20;72.10
2042;DHT22;1026;51.460;7.252;2022-08-19T06:45:01;21.20;72.00
2042;DHT22;1026;51.460;7.252;2022-08-19T06:47:29;21.20;72.10
2042;DHT22;1026;51.460;7.252;2022-08-19T06:49:57;21.20;72.10
2042;DHT22;1026;51.460;7.252;2022-08-19T06:52:29;21.20;72.40
2042;DHT22;1026;51.460;7.252;2022-08-19T06:54:55;21.20;72.10
2042;DHT22;1026;51.460;7.252;2022-08-19T06:57:21;21.20;72.20
2042;DHT22;1026;51.460;7.252;2022-08-19T06:59:47;21.10;72.10
2042;DHT22;1026;51.460;7.252;2022-08-19T07:02:13;21.20;72.30
2042;DHT22;1026;51.460;7.252;2022-08-19T07:04:38;21.10;72.10
2042;DHT22;1026;51.460;7.252;2022-08-19T07:07:07;21.10;72.00
2042;DHT22;1026;51.460;7.252;2022-08-19T07:09:36;21.10;72.00
2042;DHT22;1026;51.460;7.252;2022-08-19T07:12:05;21.20;72.70
2042;DHT22;1026;51.460;7.252;2022-08-19T07:14:32;21.20;72.20
2042;DHT22;1026;51.460;7.252;2022-08-19T07:17:04;21.20;72.20
2042;DHT22;1026;51.460;7.252;2022-08-19T07:19:33;21.20;72.60
2042;DHT22;1026;51.460;7.252;2022-08-19T07:22:01;21.20;72.60
2042;DHT22;1026;51.460;7.252;2022-08-19T07:24:28;21.20;72.10
2042;DHT22;1026;51.460;7.252;2022-08-19T07:26:57;21.20;72.10
2042;DHT22;1026;51.460;7.252;2022-08-19T07:29:26;21.20;72.20
2042;DHT22;1026;51.460;7.252;2022-08-19T07:31:54;21.20;72.70
2042;DHT22;1026;51.460;7.252;2022-08-19T07:34:22;21.20;72.20
2042;DHT22;1026;51.460;7.252;2022-08-19T07:36:48;21.20;72.30
2042;DHT22;1026;51.460;7.252;2022-08-19T07:39:18;21.20;72.30
2042;DHT22;1026;51.460;7.252;2022-08-19T07:41:44;21.20;75.00
2042;DHT22;1026;51.460;7.252;2022-08-19T07:44:11;21.20;75.70
2042;DHT22;1026;51.460;7.252;2022-08-19T07:46:41;21.20;76.10
2042;DHT22;1026;51.460;7.252;2022-08-19T07:49:07;21.20;75.50
2042;DHT22;1026;51.460;7.252;2022-08-19T07:51:47;21.30;75.40
2042;DHT22;1026;51.460;7.252;2022-08-19T07:54:13;21.20;74.90
2042;DHT22;1026;51.460;7.252;2022-08-19T07:56:38;21.30;75.50
2042;DHT22;1026;51.460;7.252;2022-08-19T07:59:05;21.30;74.80
2042;DHT22;1026;51.460;7.252;2022-08-19T08:01:31;21.30;75.00
2042;DHT22;1026;51.460;7.252;2022-08-19T08:03:57;21.20;74.40
2042;DHT22;1026;51.460;7.252;2022-08-19T08:06:38;21.30;74.20
2042;DHT22;1026;51.460;7.252;2022-08-19T08:09:26;21.30;74.50
2042;DHT22;1026;51.460;7.252;2022-08-19T08:12:01;21.30;74.70
2042;DHT22;1026;51.460;7.252;2022-08-19T08:14:30;21.30;74.00
2042;DHT22;1026;51.460;7.252;2022-08-19T08:16:57;21.30;74.20
2042;DHT22;1026;51.460;7.252;2022-08-19T08:19:25;21.40;75.50
2042;DHT22;1026;51.460;7.252;2022-08-19T08:21:52;21.40;76.10
2042;DHT22;1026;51.460;7.252;2022-08-19T08:24:18;21.40;76.30
2042;DHT22;1026;51.460;7.252;2022-08-19T08:26:45;21.40;76.30
2042;DHT22;1026;51.460;7.252;2022-08-19T08:29:12;21.40;76.00
2042;DHT22;1026;51.460;7.252;2022-08-19T08:31:40;21.40;75.70
2042;DHT22;1026;51.460;7.252;2022-08-19T08:34:06;21.40;75.60
2042;DHT22;1026;51.460;7.252;2022-08-19T08:36:32;21.40;75.30
2042;DHT22;1026;51.460;7.252;2022-08-19T08:38:59;21.40;75.10
2042;DHT22;1026;51.460;7.252;2022-08-19T08:41:35;21.50;75.50
2042;DHT22;1026;51.460;7.252;2022-08-19T08:44:03;21.50;75.10
2042;DHT22;1026;51.460;7.252;2022-08-19T08:46:39;21.50;75.50
2042;DHT22;1026;51.460;7.252;2022-08-19T08:51:52;21.50;74.70
2042;DHT22;1026;51.460;7.252;2022-08-19T08:54:21;21.40;74.30
2042;DHT22;1026;51.460;7.252;2022-08-19T08:56:49;21.50;74.50
2042;DHT22;1026;51.460;7.252;2022-08-19T08:59:21;21.50;74.60
2042;DHT22;1026;51.460;7.252;2022-08-19T09:01:48;21.50;74.40
2042;DHT22;1026;51.460;7.252;2022-08-19T09:04:14;21.60;74.40
2042;DHT22;1026;51.460;7.252;2022-08-19T09:06:55;21.60;74.50
2042;DHT22;1026;51.460;7.252;2022-08-19T09:09:40;21.60;75.00
2042;DHT22;1026;51.460;7.252;2022-08-19T09:15:03;21.60;74.70
2042;DHT22;1026;51.460;7.252;2022-08-19T09:17:31;21.60;74.60
2042;DHT22;1026;51.460;7.252;2022-08-19T09:20:06;21.60;74.40
2042;DHT22;1026;51.460;7.252;2022-08-19T09:22:35;21.70;74.80
2042;DHT22;1026;51.460;7.252;2022-08-19T09:25:01;21.70;74.80
2042;DHT22;1026;51.460;7.252;2022-08-19T09:27:27;21.60;79.10
2042;DHT22;1026;51.460;7.252;2022-08-19T09:29:54;21.80;78.10
2042;DHT22;1026;51.460;7.252;2022-08-19T09:32:20;21.80;75.90
2042;DHT22;1026;51.460;7.252;2022-08-19T09:34:46;21.80;76.00
2042;DHT22;1026;51.460;7.252;2022-08-19T09:37:12;21.80;75.60
2042;DHT22;1026;51.460;7.252;2022-08-19T09:39:39;21.80;75.60
2042;DHT22;1026;51.460;7.252;2022-08-19T09:42:07;21.80;75.60
2042;DHT22;1026;51.460;7.252;2022-08-19T09:44:38;21.80;75.60
2042;DHT22;1026;51.460;7.252;2022-08-19T09:47:04;21.80;75.20
2042;DHT22;1026;51.460;7.252;2022-08-19T09:49:30;21.90;78.20
2042;DHT22;1026;51.460;7.252;2022-08-19T09:51:57;22.00;77.50
2042;DHT22;1026;51.460;7.252;2022-08-19T09:54:23;22.00;76.90
2042;DHT22;1026;51.460;7.252;2022-08-19T09:56:49;22.00;76.20
2042;DHT22;1026;51.460;7.252;2022-08-19T09:59:15;22.00;76.50
2042;DHT22;1026;51.460;7.252;2022-08-19T10:01:41;22.00;76.50
2042;DHT22;1026;51.460;7.252;2022-08-19T10:04:07;22.00;76.30
2042;DHT22;1026;51.460;7.252;2022-08-19T10:06:35;22.00;76.10
2042;DHT22;1026;51.460;7.252;2022-08-19T10:09:03;22.00;76.20
2042;DHT22;1026;51.460;7.252;2022-08-19T10:11:32;22.10;76.10
2042;DHT22;1026;51.460;7.252;2022-08-19T10:13:58;22.10;76.20
2042;DHT22;1026;51.460;7.252;2022-08-19T10:16:25;22.10;75.10
2042;DHT22;1026;51.460;7.252;2022-08-19T10:18:51;22.10;75.50
2042;DHT22;1026;51.460;7.252;2022-08-19T10:21:25;22.10;75.70
2042;DHT22;1026;51.460;7.252;2022-08-19T10:23:54;22.10;75.50
2042;DHT22;1026;51.460;7.252;2022-08-19T10:26:26;22.20;75.20
2042;DHT22;1026;51.460;7.252;2022-08-19T10:28:52;22.20;75.20
2042;DHT22;1026;51.460;7.252;2022-08-19T10:31:22;22.30;75.10
2042;DHT22;1026;51.460;7.252;2022-08-19T10:33:49;22.30;74.80
2042;DHT22;1026;51.460;7.252;2022-08-19T10:36:19;22.40;75.50
2042;DHT22;1026;51.460;7.252;2022-08-19T10:38:48;22.50;75.30
2042;DHT22;1026;51.460;7.252;2022-08-19T10:41:17;22.60;75.40
2042;DHT22;1026;51.460;7.252;2022-08-19T10:43:44;22.60;75.10
2042;DHT22;1026;51.460;7.252;2022-08-19T10:46:13;22.50;74.70
2042;DHT22;1026;51.460;7.252;2022-08-19T10:48:39;22.60;74.70
2042;DHT22;1026;51.460;7.252;2022-08-19T10:51:05;22.60;74.40
2042;DHT22;1026;51.460;7.252;2022-08-19T10:53:46;22.60;74.50
2042;DHT22;1026;51.460;7.252;2022-08-19T10:56:12;22.60;74.10
2042;DHT22;1026;51.460;7.252;2022-08-19T10:58:53;22.60;73.80
2042;DHT22;1026;51.460;7.252;2022-08-19T11:01:19;22.60;73.60
2042;DHT22;1026;51.460;7.252;2022-08-19T11:03:45;22.70;73.80
2042;DHT22;1026;51.460;7.252;2022-08-19T11:06:11;22.60;73.70
2042;DHT22;1026;51.460;7.252;2022-08-19T11:08:37;22.70;73.70
2042;DHT22;1026;51.460;7.252;2022-08-19T11:11:04;22.80;73.30
2042;DHT22;1026;51.460;7.252;2022-08-19T11:13:32;22.80;73.50
2042;DHT22;1026;51.460;7.252;2022-08-19T11:16:05;22.90;73.40
2042;DHT22;1026;51.460;7.252;2022-08-19T11:18:32;22.90;73.20
2042;DHT22;1026;51.460;7.252;2022-08-19T11:23:40;22.90;72.70
2042;DHT22;1026;51.460;7.252;2022-08-19T11:26:06;23.00;72.40
2042;DHT22;1026;51.460;7.252;2022-08-19T11:28:32;22.90;72.40
2042;DHT22;1026;51.460;7.252;2022-08-19T11:30:57;22.90;72.50
2042;DHT22;1026;51.460;7.252;2022-08-19T11:33:23;23.00;72.30
2042;DHT22;1026;51.460;7.252;2022-08-19T11:35:50;22.90;72.40
2042;DHT22;1026;51.460;7.252;2022-08-19T11:38:16;23.00;72.60
2042;DHT22;1026;51.460;7.252;2022-08-19T11:40:42;23.00;72.30
2042;DHT22;1026;51.460;7.252;2022-08-19T11:43:08;23.10;72.30
2042;DHT22;1026;51.460;7.252;2022-08-19T11:45:33;23.10;72.10
2042;DHT22;1026;51.460;7.252;2022-08-19T11:47:59;23.10;71.50
2042;DHT22;1026;51.460;7.252;2022-08-19T11:50:25;23.10;71.10
2042;DHT22;1026;51.460;7.252;2022-08-19T11:52:54;23.20;71.50
2042;DHT22;1026;51.460;7.252;2022-08-19T11:55:21;23.20;71.30
2042;DHT22;1026;51.460;7.252;2022-08-19T11:57:47;23.40;68.80
2042;DHT22;1026;51.460;7.252;2022-08-19T12:00:13;23.50;68.40
2042;DHT22;1026;51.460;7.252;2022-08-19T12:02:39;23.50;68.80
2042;DHT22;1026;51.460;7.252;2022-08-19T12:05:05;23.50;69.40
2042;DHT22;1026;51.460;7.252;2022-08-19T12:07:31;23.50;69.00
2042;DHT22;1026;51.460;7.252;2022-08-19T12:09:59;23.50;68.80
2042;DHT22;1026;51.460;7.252;2022-08-19T12:12:25;23.40;69.00
2042;DHT22;1026;51.460;7.252;2022-08-19T12:14:51;23.50;69.40
2042;DHT22;1026;51.460;7.252;2022-08-19T12:17:23;23.50;69.10
2042;DHT22;1026;51.460;7.252;2022-08-19T12:19:49;23.60;69.10
2042;DHT22;1026;51.460;7.252;2022-08-19T12:22:15;23.60;69.60
2042;DHT22;1026;51.460;7.252;2022-08-19T12:24:40;23.60;69.10
2042;DHT22;1026;51.460;7.252;2022-08-19T12:27:06;23.60;69.00
2042;DHT22;1026;51.460;7.252;2022-08-19T12:29:32;23.70;68.90
2042;DHT22;1026;51.460;7.252;2022-08-19T12:31:59;23.70;68.90
2042;DHT22;1026;51.460;7.252;2022-08-19T12:34:29;23.70;68.90
2042;DHT22;1026;51.460;7.252;2022-08-19T12:36:57;23.80;69.50
2042;DHT22;1026;51.460;7.252;2022-08-19T12:39:23;23.80;67.10
2042;DHT22;1026;51.460;7.252;2022-08-19T12:41:49;24.00;66.90
2042;DHT22;1026;51.460;7.252;2022-08-19T12:44:14;24.00;67.10
2042;DHT22;1026;51.460;7.252;2022-08-19T12:46:40;24.00;67.40
2042;DHT22;1026;51.460;7.252;2022-08-19T12:49:06;24.00;67.30
2042;DHT22;1026;51.460;7.252;2022-08-19T12:51:31;24.00;67.10
2042;DHT22;1026;51.460;7.252;2022-08-19T12:53:57;24.00;67.60
2042;DHT22;1026;51.460;7.252;2022-08-19T12:56:23;24.00;67.10
2042;DHT22;1026;51.460;7.252;2022-08-19T12:58:48;24.10;67.70
2042;DHT22;1026;51.460;7.252;2022-08-19T13:01:16;24.10;66.70
2042;DHT22;1026;51.460;7.252;2022-08-19T13:03:44;24.10;67.00
2042;DHT22;1026;51.460;7.252;2022-08-19T13:06:10;24.10;66.80
2042;DHT22;1026;51.460;7.252;2022-08-19T13:08:36;24.20;66.10
2042;DHT22;1026;51.460;7.252;2022-08-19T13:11:09;24.20;66.10
2042;DHT22;1026;51.460;7.252;2022-08-19T13:13:38;24.20;66.10
2042;DHT22;1026;51.460;7.252;2022-08-19T13:16:07;24.30;66.60
2042;DHT22;1026;51.460;7.252;2022-08-19T13:18:33;24.30;66.80
2042;DHT22;1026;51.460;7.252;2022-08-19T13:21:03;24.40;66.50
2042;DHT22;1026;51.460;7.252;2022-08-19T13:23:29;24.40;65.80
2042;DHT22;1026;51.460;7.252;2022-08-19T13:25:57;24.40;66.00
2042;DHT22;1026;51.460;7.252;2022-08-19T13:28:23;24.50;65.70
2042;DHT22;1026;51.460;7.252;2022-08-19T13:30:49;24.50;65.10
2042;DHT22;1026;51.460;7.252;2022-08-19T13:33:30;24.50;65.50
2042;DHT22;1026;51.460;7.252;2022-08-19T13:35:58;24.60;65.20
2042;DHT22;1026;51.460;7.252;2022-08-19T13:38:26;24.70;65.40
2042;DHT22;1026;51.460;7.252;2022-08-19T13:40:53;24.60;64.40
2042;DHT22;1026;51.460;7.252;2022-08-19T13:43:21;24.70;65.60
2042;DHT22;1026;51.460;7.252;2022-08-19T13:45:47;24.70;64.90
2042;DHT22;1026;51.460;7.252;2022-08-19T13:48:13;24.80;64.70
2042;DHT22;1026;51.460;7.252;2022-08-19T13:50:42;24.80;64.50
2042;DHT22;1026;51.460;7.252;2022-08-19T13:53:10;24.90;65.20
2042;DHT22;1026;51.460;7.252;2022-08-19T13:55:38;24.90;64.50
2042;DHT22;1026;51.460;7.252;2022-08-19T13:58:04;24.90;64.60
2042;DHT22;1026;51.460;7.252;2022-08-19T14:00:34;25.00;64.40
2042;DHT22;1026;51.460;7.252;2022-08-19T14:03:01;25.00;63.50
2042;DHT22;1026;51.460;7.252;2022-08-19T14:05:28;25.10;62.30
2042;DHT22;1026;51.460;7.252;2022-08-19T14:07:55;25.20;64.50
2042;DHT22;1026;51.460;7.252;2022-08-19T14:10:21;25.20;64.40
2042;DHT22;1026;51.460;7.252;2022-08-19T14:12:48;25.20;62.00
2042;DHT22;1026;51.460;7.252;2022-08-19T14:15:15;25.30;63.00
2042;DHT22;1026;51.460;7.252;2022-08-19T14:17:43;25.30;63.40
2042;DHT22;1026;51.460;7.252;2022-08-19T14:20:10;25.40;62.90
2042;DHT22;1026;51.460;7.252;2022-08-19T14:22:39;25.40;63.50
2042;DHT22;1026;51.460;7.252;2022-08-19T14:25:08;25.40;62.90
2042;DHT22;1026;51.460;7.252;2022-08-19T14:27:36;25.50;61.20
2042;DHT22;1026;51.460;7.252;2022-08-19T14:30:03;25.50;61.40
2042;DHT22;1026;51.460;7.252;2022-08-19T14:32:29;25.60;62.20
2042;DHT22;1026;51.460;7.252;2022-08-19T14:34:55;25.70;61.50
2042;DHT22;1026;51.460;7.252;2022-08-19T14:37:21;25.70;61.40
2042;DHT22;1026;51.460;7.252;2022-08-19T14:39:48;25.80;62.50
2042;DHT22;1026;51.460;7.252;2022-08-19T14:42:13;25.80;62.10
2042;DHT22;1026;51.460;7.252;2022-08-19T14:44:41;25.80;61.10
2042;DHT22;1026;51.460;7.252;2022-08-19T14:47:06;25.90;59.60
2042;DHT22;1026;51.460;7.252;2022-08-19T14:49:33;25.90;60.50
2042;DHT22;1026;51.460;7.252;2022-08-19T14:51:59;25.90;61.10
2042;DHT22;1026;51.460;7.252;2022-08-19T14:54:24;26.00;61.10
2042;DHT22;1026;51.460;7.252;2022-08-19T14:56:50;26.00;60.70
2042;DHT22;1026;51.460;7.252;2022-08-19T14:59:16;26.00;60.00
2042;DHT22;1026;51.460;7.252;2022-08-19T15:01:42;26.00;58.70
2042;DHT22;1026;51.460;7.252;2022-08-19T15:04:08;26.10;59.40
2042;DHT22;1026;51.460;7.252;2022-08-19T15:06:34;26.10;60.70
2042;DHT22;1026;51.460;7.252;2022-08-19T15:09:00;26.10;60.30
2042;DHT22;1026;51.460;7.252;2022-08-19T15:11:27;26.10;60.90
2042;DHT22;1026;51.460;7.252;2022-08-19T15:13:54;26.20;60.30
2042;DHT22;1026;51.460;7.252;2022-08-19T15:16:21;26.20;60.60
2042;DHT22;1026;51.460;7.252;2022-08-19T15:18:51;26.20;60.60
2042;DHT22;1026;51.460;7.252;2022-08-19T15:21:17;26.20;60.80
2042;DHT22;1026;51.460;7.252;2022-08-19T15:23:44;26.20;60.50
2042;DHT22;1026;51.460;7.252;2022-08-19T15:26:10;26.20;60.10
2042;DHT22;1026;51.460;7.252;2022-08-19T15:28:36;26.20;60.00
2042;DHT22;1026;51.460;7.252;2022-08-19T15:31:03;26.20;59.10
2042;DHT22;1026;51.460;7.252;2022-08-19T15:33:31;26.20;59.60
2042;DHT22;1026;51.460;7.252;2022-08-19T15:35:57;26.30;59.40
2042;DHT22;1026;51.460;7.252;2022-08-19T15:38:24;26.30;59.40
2042;DHT22;1026;51.460;7.252;2022-08-19T15:40:51;26.30;59.40
2042;DHT22;1026;51.460;7.252;2022-08-19T15:43:19;26.30;58.90
2042;DHT22;1026;51.460;7.252;2022-08-19T15:45:46;26.30;59.40
2042;DHT22;1026;51.460;7.252;2022-08-19T15:48:12;26.30;59.40
2042;DHT22;1026;51.460;7.252;2022-08-19T15:50:38;26.30;59.40
2042;DHT22;1026;51.460;7.252;2022-08-19T15:53:06;26.30;57.40
2042;DHT22;1026;51.460;7.252;2022-08-19T15:55:34;26.30;59.50
2042;DHT22;1026;51.460;7.252;2022-08-19T15:58:04;26.30;61.00
2042;DHT22;1026;51.460;7.252;2022-08-19T16:00:45;26.40;60.10
2042;DHT22;1026;51.460;7.252;2022-08-19T16:03:26;26.40;60.40
2042;DHT22;1026;51.460;7.252;2022-08-19T16:06:07;26.40;60.60
2042;DHT22;1026;51.460;7.252;2022-08-19T16:08:48;26.40;61.30
2042;DHT22;1026;51.460;7.252;2022-08-19T16:11:16;26.40;59.90
2042;DHT22;1026;51.460;7.252;2022-08-19T16:13:46;26.40;60.10